createdAt,value
2022-08-30T00:01:22.875Z,23.425499210465933
2022-08-30T00:04:16.408Z,23.395307818902893
2022-08-30T00:07:16.326Z,23.334282696416267
2022-08-30T00:11:18.448Z,23.36190458887877
2022-08-30T00:14:16.238Z,23.268118662617145
2022-08-30T00:17:16.756Z,23.203881782755435
2022-08-30T00:21:16.065Z,23.306018443065476
2022-08-30T00:24:16.008Z,23.308587920279024
2022-08-30T00:27:16.264Z,23.326574262811118
2022-08-30T00:31:16.833Z,23.352911413665517
2022-08-30T00:34:17.011Z,23.351626674422096
2022-08-30T00:37:17.091Z,23.312442136235767
2022-08-30T00:41:16.618Z,23.23407311062656
2022-08-30T00:44:17.124Z,23.173690464929678
2022-08-30T00:47:17.775Z,23.203239414186463
2022-08-30T00:51:18.048Z,23.132578899362123
2022-08-30T00:54:18.160Z,23.07091158593539
2022-08-30T00:57:17.830Z,23.110096019820865
2022-08-30T01:01:17.330Z,23.077977630139593
2022-08-30T01:04:18.359Z,23.02209165919485
2022-08-30T01:07:17.229Z,22.980980162312335
2022-08-30T01:11:19.836Z,23.087613145850263
2022-08-30T01:14:17.792Z,23.06641501263739
2022-08-30T01:17:17.880Z,23.00410537701682
2022-08-30T01:21:22.396Z,23.01566798657914
2022-08-30T01:24:18.461Z,22.95014655187406
2022-08-30T01:27:17.760Z,22.97327175872051
2022-08-30T01:31:16.836Z,22.936656850601956
2022-08-30T01:34:17.374Z,22.938583950660906
2022-08-30T01:37:24.124Z,22.762575647444464
2022-08-30T01:41:19.283Z,22.716325347038218
2022-08-30T01:44:17.219Z,22.817176726878188
2022-08-30T01:47:18.255Z,22.729172650341933
2022-08-30T01:52:00.961Z,22.731742111220957
2022-08-30T01:54:16.220Z,22.613546986092114
2022-08-30T01:57:20.405Z,22.646307576003984
2022-08-30T02:21:17.759Z,22.64181102374714
2022-08-30T02:41:45.720Z,22.547383477826315
2022-08-30T02:44:46.080Z,22.49214019720248
2022-08-30T02:47:57.401Z,22.49727910560914
2022-08-30T09:31:19.551Z,27.577232400896264
2022-08-30T09:34:18.623Z,27.72113000980253
2022-08-30T09:37:26.150Z,27.86181583910111
2022-08-30T09:41:37.370Z,28.08537185211062
2022-08-30T09:44:18.246Z,28.251112010353246
2022-08-30T09:47:24.051Z,28.389229040116426
2022-08-30T09:51:35.079Z,28.55946659857873
2022-08-30T09:54:25.503Z,28.76632172202553
2022-08-30T09:57:33.516Z,28.969322860581816
2022-08-30T10:01:22.998Z,29.232711090572412
2022-08-30T10:04:21.381Z,29.413228831157266
2022-08-30T10:31:23.986Z,30.644099580138665
2022-08-30T10:51:27.020Z,31.519723954447546
2022-08-30T10:54:22.692Z,31.688040099357387
2022-08-30T10:57:16.967Z,31.881411322907752
2022-08-30T11:01:31.495Z,32.141595845256234
2022-08-30T11:04:51.280Z,32.1814266280915
2022-08-30T11:07:31.246Z,32.26173067889185
2022-08-30T11:11:26.585Z,32.40692058310533
2022-08-30T11:21:20.686Z,32.756405198767695
2022-08-30T11:24:18.187Z,32.883607653957824
2022-08-30T11:27:41.771Z,33.023016610114425
2022-08-30T11:31:32.885Z,33.24722777676006
2022-08-30T11:34:54.046Z,33.45088137950843
2022-08-30T11:37:32.744Z,33.46051799663992
2022-08-30T11:41:32.296Z,33.53825341225056
2022-08-30T11:44:31.427Z,33.587721438668176
2022-08-30T11:47:50.980Z,33.67509360314152
2022-08-30T11:52:27.433Z,33.860759731919096
2022-08-30T11:54:32.309Z,33.83827419437957
2022-08-30T11:57:28.219Z,34.02008598606481
2022-08-30T12:01:42.206Z,34.20703771349008
2022-08-30T12:21:44.932Z,34.872614686825635
2022-08-30T12:24:22.700Z,34.910519313862096
2022-08-30T12:27:23.420Z,34.95099376359731
2022-08-30T12:41:19.794Z,35.508643575151744
2022-08-30T12:51:49.581Z,35.67054254927798
2022-08-30T13:01:24.397Z,35.982134641582164
2022-08-30T13:11:29.343Z,35.77590552883275
2022-08-30T13:21:22.676Z,35.92945301681757
2022-08-30T13:31:17.350Z,36.02774924382184
2022-08-30T13:41:17.177Z,36.124118197167356
2022-08-30T13:51:16.059Z,36.01746989483736
2022-08-30T14:01:16.841Z,35.93009547547199
2022-08-30T14:11:19.107Z,36.1164086771344
2022-08-30T14:21:16.885Z,36.15495628384751
2022-08-30T14:31:17.017Z,36.1633082674598
2022-08-30T14:41:16.263Z,36.13182771785514
2022-08-30T14:51:19.685Z,35.928168099522374
2022-08-30T15:01:17.574Z,35.797106630963754
2022-08-30T15:11:20.041Z,35.636492344230646
2022-08-30T15:21:23.149Z,35.40585072559124
2022-08-30T16:01:18.226Z,34.830212919407586
2022-08-30T16:41:21.645Z,34.13829596826254
2022-08-30T16:44:17.887Z,34.11773769942956
2022-08-30T16:47:17.310Z,34.09589454389679
2022-08-30T16:51:23.766Z,33.8402015259504
2022-08-30T16:54:17.837Z,33.78752114441049
2022-08-30T16:57:16.896Z,33.64618368646806
2022-08-30T17:01:19.543Z,33.54532027151663
2022-08-30T17:04:19.312Z,33.43289303026722
2022-08-30T17:07:22.418Z,33.29605320454293
2022-08-30T17:11:16.418Z,33.18491115050856
2022-08-30T17:14:21.546Z,33.24722777676006
2022-08-30T17:17:17.264Z,33.10524872152746
2022-08-30T17:21:16.131Z,32.7506232732223
2022-08-30T17:24:16.516Z,32.674173403422266
2022-08-30T17:27:16.659Z,32.65554277264164
2022-08-30T17:31:18.290Z,32.37801107038395
2022-08-30T17:34:18.687Z,32.22639688778581
2022-08-30T17:37:20.511Z,32.146735300123694
2022-08-30T17:41:17.085Z,31.993836642281167
2022-08-30T17:44:18.177Z,32.05743731320408
2022-08-30T17:47:17.181Z,31.890405343332624
2022-08-30T17:51:16.576Z,31.66170052936077
2022-08-30T18:01:17.738Z,31.397020396682727
2022-08-30T18:04:19.776Z,31.29680190713998
2022-08-30T18:07:17.095Z,31.22228053793888
2022-08-30T18:11:17.153Z,31.148401654736155
2022-08-30T18:14:17.379Z,31.007068306618386
2022-08-30T18:17:17.440Z,31.070668286034287
2022-08-30T18:21:18.325Z,30.84967460979542
2022-08-30T18:24:17.739Z,30.69549329389711
2022-08-30T18:28:45.547Z,30.700632666873663
2022-08-30T18:31:16.290Z,30.538100137427683
2022-08-30T18:34:16.805Z,30.55480307169819
2022-08-30T18:37:18.900Z,30.379422415178215
2022-08-30T18:41:17.026Z,30.302332123937322
2022-08-30T18:44:27.782Z,30.107679429976635
2022-08-30T18:47:17.345Z,30.02031069979166
2022-08-30T18:51:20.149Z,29.86613079288254
2022-08-30T18:54:17.123Z,29.870627703125592
2022-08-30T18:57:17.260Z,29.66826696278622
2022-08-30T19:01:22.165Z,29.708096660139564
2022-08-30T19:04:34.977Z,29.629079696966166
2022-08-30T19:07:19.454Z,29.53400246661922
2022-08-30T19:11:16.553Z,29.31493976773345
2022-08-30T19:14:17.126Z,29.288600886469887
2022-08-30T19:17:16.761Z,29.140203917823964
2022-08-30T19:21:16.222Z,29.194808834779632
2022-08-30T19:24:17.881Z,29.021358035670072
2022-08-30T19:27:18.121Z,28.951335399589517
2022-08-30T19:51:48.608Z,28.332697393220677
2022-08-30T19:54:48.756Z,28.269741736986997
2022-08-30T19:57:50.182Z,28.233124691715055
2022-08-30T20:01:20.410Z,28.096935109142215
2022-08-30T20:04:16.919Z,28.01342273035298
2022-08-30T20:07:25.238Z,27.976805788504226
2022-08-30T20:11:18.563Z,27.71920280817576
2022-08-30T20:21:16.812Z,27.640829976695024
2022-08-30T21:11:18.298Z,26.70421563834534
2022-08-30T21:14:17.772Z,26.670168797159658
2022-08-30T21:21:20.167Z,26.472954326868056
2022-08-30T21:24:16.994Z,26.36374780131191
2022-08-30T21:27:17.892Z,26.377880403098242
2022-08-30T21:41:15.892Z,26.151116649196865
2022-08-30T21:44:19.188Z,26.055400673853363
2022-08-30T21:47:19.889Z,25.982810773291657
2022-08-30T21:51:17.476Z,25.929492564735483
2022-08-30T21:54:17.977Z,25.87424722506112
2022-08-30T21:57:17.309Z,25.85882992696861
2022-08-30T22:01:20.161Z,25.770822900509028
2022-08-30T22:04:17.665Z,25.693094137902154
2022-08-30T22:07:17.049Z,25.655193360447537
2022-08-30T22:11:19.886Z,25.66354437784903
2022-08-30T22:14:17.079Z,25.664186763834824
2022-08-30T22:17:16.918Z,25.523504341498846
2022-08-30T22:21:20.394Z,25.466332095205964
2022-08-30T22:24:16.888Z,25.562047449214514
2022-08-30T22:27:16.546Z,25.357769164867932
2022-08-30T22:31:17.816Z,25.36804730655276
2022-08-30T22:34:16.951Z,25.325007596016896
2022-08-30T22:37:16.740Z,25.28068313933909
2022-08-30T22:41:19.093Z,25.244709683168914
2022-08-30T22:44:18.210Z,25.17661710874854
2022-08-30T22:47:16.950Z,25.22608057754269
2022-08-30T22:51:20.011Z,25.057776417308286
2022-08-30T22:54:16.913Z,25.02373019384686
2022-08-30T22:57:19.783Z,25.062273089286464
2022-08-30T23:01:20.752Z,25.01409447254491
2022-08-30T23:04:16.876Z,24.95435302331025
2022-08-30T23:07:16.818Z,24.935081596463352
2022-08-30T23:11:16.979Z,24.9460020711741
2022-08-30T23:14:17.051Z,24.91645255440171
2022-08-30T23:17:17.039Z,24.879836862185037
2022-08-30T23:21:18.796Z,24.796327443982953
